createdAt,value
2023-04-19T00:12:23.651Z,100101.00
2023-04-19T00:26:38.850Z,100096.06
2023-04-19T00:52:58.786Z,100078.04
2023-04-19T01:00:17.535Z,100070.75
2023-04-19T01:20:46.098Z,100057.33
2023-04-19T01:40:35.996Z,100031.38
2023-04-19T02:00:54.962Z,100008.65
2023-04-19T02:21:03.742Z,99995.50
2023-04-19T02:41:12.486Z,99983.64
2023-04-19T03:01:03.369Z,99966.80
2023-04-19T03:21:32.609Z,99947.46
2023-04-19T03:41:24.645Z,99930.70
2023-04-19T03:48:02.625Z,99933.27
2023-04-19T04:08:32.065Z,99930.80
2023-04-19T04:22:32.671Z,99941.21
2023-04-19T05:05:33.928Z,99923.07
2023-04-19T05:32:06.750Z,99923.76
2023-04-19T05:39:23.826Z,99914.92
2023-04-19T05:46:02.364Z,99915.23
2023-04-19T05:59:49.560Z,99915.26
2023-04-19T06:20:19.850Z,99905.29
2023-04-19T06:40:11.451Z,99902.29
2023-04-19T06:59:43.155Z,99912.47
2023-04-19T07:20:05.403Z,99906.02
2023-04-19T07:40:22.115Z,99895.05
2023-04-19T08:00:14.843Z,99893.38
2023-04-19T08:06:41.824Z,99901.83
2023-04-19T08:27:04.367Z,99911.70
2023-04-19T08:33:49.176Z,99911.23
2023-04-19T08:54:18.185Z,99916.23
2023-04-19T09:14:16.483Z,99897.64
2023-04-19T09:34:17.263Z,99870.96
2023-04-19T09:54:48.319Z,99864.38
2023-04-19T10:14:37.854Z,99849.95
2023-04-19T10:42:13.416Z,99834.61
2023-04-19T11:02:17.137Z,99821.64
2023-04-19T11:22:09.657Z,99816.95
2023-04-19T11:29:15.271Z,99809.77
2023-04-19T11:49:03.039Z,99819.34
2023-04-19T11:56:01.536Z,99822.03
2023-04-19T12:10:10.753Z,99823.63
2023-04-19T12:23:11.982Z,99816.80
2023-04-19T12:43:40.965Z,99800.02
2023-04-19T13:03:59.268Z,99783.27
2023-04-19T13:24:25.281Z,99777.23
2023-04-19T13:44:54.264Z,99756.89
2023-04-19T14:05:24.175Z,99756.09
2023-04-19T14:12:35.683Z,99749.08
2023-04-19T14:33:03.868Z,99743.09
2023-04-19T14:52:53.340Z,99734.34
2023-04-19T14:59:39.423Z,99734.01
2023-04-19T15:13:39.231Z,99731.37
2023-04-19T15:34:09.951Z,99725.89
2023-04-19T15:54:39.979Z,99715.57
2023-04-19T16:13:54.449Z,99716.17
2023-04-19T16:28:28.818Z,99710.94
2023-04-19T16:48:16.445Z,99707.23
2023-04-19T16:54:58.042Z,99703.32
2023-04-19T17:14:50.185Z,99709.63
2023-04-19T17:34:39.684Z,99716.55
2023-04-19T17:54:30.113Z,99715.33
2023-04-19T18:14:22.480Z,99726.14
2023-04-19T18:34:52.384Z,99751.45
2023-04-19T18:55:19.946Z,99753.36
2023-04-19T19:02:19.642Z,99758.32
2023-04-19T19:26:12.762Z,99774.77
2023-04-19T19:46:58.405Z,99783.71
2023-04-19T20:27:10.514Z,99785.45
2023-04-19T20:41:10.374Z,99789.57
2023-04-19T20:48:13.927Z,99795.05
2023-04-19T21:08:03.557Z,99799.86
2023-04-19T21:22:18.888Z,99792.77
2023-04-19T21:42:59.462Z,99795.06
2023-04-19T22:02:49.318Z,99785.16
2023-04-19T22:23:10.219Z,99791.88
2023-04-19T22:37:10.520Z,99790.10
2023-04-19T22:51:10.907Z,99792.56
2023-04-19T23:11:00.521Z,99791.52
2023-04-19T23:30:51.198Z,99793.83
2023-04-19T23:50:40.190Z,99793.52
